sensor_id;sensor_type;location;lat;lon;timestamp;P1;durP1;ratioP1;P2;durP2;ratioP2
9950;SDS011;24074;49.254;6.702;2023-05-23T00:00:04;42.97;;;30.97;;
9950;SDS011;24074;49.254;6.702;2023-05-23T00:02:30;41.23;;;30.87;;
9950;SDS011;24074;49.254;6.702;2023-05-23T00:04:56;46.57;;;33.43;;
9950;SDS011;24074;49.254;6.702;2023-05-23T00:07:22;45.27;;;31.77;;
9950;SDS011;24074;49.254;6.702;2023-05-23T00:09:48;40.90;;;31.97;;
9950;SDS011;24074;49.254;6.702;2023-05-23T00:12:13;46.40;;;32.27;;
9950;SDS011;24074;49.254;6.702;2023-05-23T00:14:39;40.37;;;30.33;;
9950;SDS011;24074;49.254;6.702;2023-05-23T00:17:05;48.97;;;34.83;;
9950;SDS011;24074;49.254;6.702;2023-05-23T00:19:31;48.77;;;34.43;;
9950;SDS011;24074;49.254;6.702;2023-05-23T00:22:00;50.03;;;33.67;;
9950;SDS011;24074;49.254;6.702;2023-05-23T00:24:27;51.10;;;35.00;;
9950;SDS011;24074;49.254;6.702;2023-05-23T00:26:53;53.27;;;36.00;;
9950;SDS011;24074;49.254;6.702;2023-05-23T00:29:18;50.37;;;35.93;;
9950;SDS011;24074;49.254;6.702;2023-05-23T00:31:44;54.47;;;35.60;;
9950;SDS011;24074;49.254;6.702;2023-05-23T00:34:11;56.80;;;38.80;;
9950;SDS011;24074;49.254;6.702;2023-05-23T00:36:37;56.93;;;39.10;;
9950;SDS011;24074;49.254;6.702;2023-05-23T00:39:05;51.07;;;36.87;;
9950;SDS011;24074;49.254;6.702;2023-05-23T00:41:32;50.40;;;36.43;;
9950;SDS011;24074;49.254;6.702;2023-05-23T00:43:58;54.43;;;38.00;;
9950;SDS011;24074;49.254;6.702;2023-05-23T00:46:24;52.53;;;36.50;;
9950;SDS011;24074;49.254;6.702;2023-05-23T00:48:50;56.90;;;37.93;;
9950;SDS011;24074;49.254;6.702;2023-05-23T00:51:17;58.07;;;38.40;;
9950;SDS011;24074;49.254;6.702;2023-05-23T00:53:43;58.40;;;38.90;;
9950;SDS011;24074;49.254;6.702;2023-05-23T00:56:09;55.53;;;39.80;;
9950;SDS011;24074;49.254;6.702;2023-05-23T00:58:36;56.63;;;39.37;;
9950;SDS011;24074;49.254;6.702;2023-05-23T01:01:02;59.13;;;40.10;;
9950;SDS011;24074;49.254;6.702;2023-05-23T01:03:28;63.97;;;40.57;;
9950;SDS011;24074;49.254;6.702;2023-05-23T01:05:54;64.60;;;42.60;;
9950;SDS011;24074;49.254;6.702;2023-05-23T01:08:20;67.97;;;44.23;;
9950;SDS011;24074;49.254;6.702;2023-05-23T01:10:46;63.30;;;42.47;;
9950;SDS011;24074;49.254;6.702;2023-05-23T01:13:16;62.90;;;43.73;;
9950;SDS011;24074;49.254;6.702;2023-05-23T01:15:55;65.93;;;44.07;;
9950;SDS011;24074;49.254;6.702;2023-05-23T01:18:30;67.40;;;45.00;;
9950;SDS011;24074;49.254;6.702;2023-05-23T01:21:05;69.03;;;46.00;;
9950;SDS011;24074;49.254;6.702;2023-05-23T01:28:54;67.93;;;46.17;;
9950;SDS011;24074;49.254;6.702;2023-05-23T01:31:29;70.33;;;45.77;;
9950;SDS011;24074;49.254;6.702;2023-05-23T01:33:58;70.70;;;45.93;;
9950;SDS011;24074;49.254;6.702;2023-05-23T01:36:25;64.17;;;45.27;;
9950;SDS011;24074;49.254;6.702;2023-05-23T01:38:51;64.57;;;44.17;;
9950;SDS011;24074;49.254;6.702;2023-05-23T01:41:16;64.83;;;44.40;;
9950;SDS011;24074;49.254;6.702;2023-05-23T01:43:42;65.60;;;45.53;;
9950;SDS011;24074;49.254;6.702;2023-05-23T01:46:08;66.57;;;45.43;;
9950;SDS011;24074;49.254;6.702;2023-05-23T01:48:34;69.00;;;45.03;;
9950;SDS011;24074;49.254;6.702;2023-05-23T01:51:02;72.23;;;45.67;;
9950;SDS011;24074;49.254;6.702;2023-05-23T01:53:28;73.80;;;47.43;;
9950;SDS011;24074;49.254;6.702;2023-05-23T01:55:54;67.50;;;45.47;;
9950;SDS011;24074;49.254;6.702;2023-05-23T01:58:20;68.73;;;45.67;;
9950;SDS011;24074;49.254;6.702;2023-05-23T02:00:46;68.70;;;45.67;;
9950;SDS011;24074;49.254;6.702;2023-05-23T02:03:12;64.33;;;45.00;;
9950;SDS011;24074;49.254;6.702;2023-05-23T02:05:38;69.27;;;46.33;;
9950;SDS011;24074;49.254;6.702;2023-05-23T02:08:03;69.93;;;45.57;;
9950;SDS011;24074;49.254;6.702;2023-05-23T02:10:29;71.77;;;45.87;;
9950;SDS011;24074;49.254;6.702;2023-05-23T02:12:54;67.10;;;45.33;;
9950;SDS011;24074;49.254;6.702;2023-05-23T02:15:20;66.97;;;44.93;;
9950;SDS011;24074;49.254;6.702;2023-05-23T02:17:45;68.03;;;45.70;;
9950;SDS011;24074;49.254;6.702;2023-05-23T02:20:12;70.10;;;46.63;;
9950;SDS011;24074;49.254;6.702;2023-05-23T02:22:38;70.30;;;45.77;;
9950;SDS011;24074;49.254;6.702;2023-05-23T02:25:04;70.03;;;46.10;;
9950;SDS011;24074;49.254;6.702;2023-05-23T02:27:30;68.27;;;44.97;;
9950;SDS011;24074;49.254;6.702;2023-05-23T02:29:55;67.97;;;45.23;;
9950;SDS011;24074;49.254;6.702;2023-05-23T02:32:21;66.97;;;44.77;;
9950;SDS011;24074;49.254;6.702;2023-05-23T02:34:46;69.83;;;45.63;;
9950;SDS011;24074;49.254;6.702;2023-05-23T02:37:14;69.77;;;45.63;;
9950;SDS011;24074;49.254;6.702;2023-05-23T02:39:40;67.50;;;45.80;;
9950;SDS011;24074;49.254;6.702;2023-05-23T02:42:07;64.83;;;45.03;;
9950;SDS011;24074;49.254;6.702;2023-05-23T02:44:32;69.93;;;44.47;;
9950;SDS011;24074;49.254;6.702;2023-05-23T02:46:58;67.53;;;45.00;;
9950;SDS011;24074;49.254;6.702;2023-05-23T02:49:23;76.37;;;45.20;;
9950;SDS011;24074;49.254;6.702;2023-05-23T02:51:49;67.50;;;44.63;;
9950;SDS011;24074;49.254;6.702;2023-05-23T02:54:15;71.50;;;46.17;;
9950;SDS011;24074;49.254;6.702;2023-05-23T02:56:40;68.57;;;46.27;;
9950;SDS011;24074;49.254;6.702;2023-05-23T02:59:06;67.03;;;45.30;;
9950;SDS011;24074;49.254;6.702;2023-05-23T03:01:32;70.33;;;44.50;;
9950;SDS011;24074;49.254;6.702;2023-05-23T03:03:57;66.23;;;43.73;;
9950;SDS011;24074;49.254;6.702;2023-05-23T03:06:23;71.80;;;46.77;;
9950;SDS011;24074;49.254;6.702;2023-05-23T03:08:49;71.23;;;47.27;;
9950;SDS011;24074;49.254;6.702;2023-05-23T03:11:15;69.87;;;46.23;;
9950;SDS011;24074;49.254;6.702;2023-05-23T03:13:40;67.73;;;46.33;;
9950;SDS011;24074;49.254;6.702;2023-05-23T03:16:06;68.73;;;46.40;;
9950;SDS011;24074;49.254;6.702;2023-05-23T03:18:31;71.93;;;46.97;;
9950;SDS011;24074;49.254;6.702;2023-05-23T03:20:57;71.23;;;47.47;;
9950;SDS011;24074;49.254;6.702;2023-05-23T03:23:22;68.53;;;46.43;;
9950;SDS011;24074;49.254;6.702;2023-05-23T03:25:48;71.03;;;45.80;;
9950;SDS011;24074;49.254;6.702;2023-05-23T03:28:14;66.57;;;45.00;;
9950;SDS011;24074;49.254;6.702;2023-05-23T03:30:39;69.80;;;45.67;;
9950;SDS011;24074;49.254;6.702;2023-05-23T03:33:05;70.20;;;44.23;;
9950;SDS011;24074;49.254;6.702;2023-05-23T03:35:31;71.60;;;45.30;;
9950;SDS011;24074;49.254;6.702;2023-05-23T03:37:57;68.70;;;43.60;;
9950;SDS011;24074;49.254;6.702;2023-05-23T03:40:22;70.27;;;45.40;;
9950;SDS011;24074;49.254;6.702;2023-05-23T03:42:48;64.73;;;43.33;;
9950;SDS011;24074;49.254;6.702;2023-05-23T03:45:25;61.20;;;42.60;;
9950;SDS011;24074;49.254;6.702;2023-05-23T03:47:50;65.03;;;43.93;;
9950;SDS011;24074;49.254;6.702;2023-05-23T03:50:16;68.60;;;43.33;;
9950;SDS011;24074;49.254;6.702;2023-05-23T03:52:41;65.20;;;44.10;;
9950;SDS011;24074;49.254;6.702;2023-05-23T03:55:07;61.10;;;43.10;;
9950;SDS011;24074;49.254;6.702;2023-05-23T03:57:35;66.93;;;44.03;;
9950;SDS011;24074;49.254;6.702;2023-05-23T04:00:01;66.37;;;44.27;;
9950;SDS011;24074;49.254;6.702;2023-05-23T04:02:30;67.33;;;43.27;;
9950;SDS011;24074;49.254;6.702;2023-05-23T04:04:56;64.07;;;41.63;;
9950;SDS011;24074;49.254;6.702;2023-05-23T04:07:22;57.93;;;39.37;;
9950;SDS011;24074;49.254;6.702;2023-05-23T04:09:50;60.30;;;39.70;;
9950;SDS011;24074;49.254;6.702;2023-05-23T04:12:15;52.57;;;38.27;;
9950;SDS011;24074;49.254;6.702;2023-05-23T04:14:41;54.10;;;36.93;;
9950;SDS011;24074;49.254;6.702;2023-05-23T04:17:07;50.90;;;36.50;;
9950;SDS011;24074;49.254;6.702;2023-05-23T04:19:33;54.57;;;38.00;;
9950;SDS011;24074;49.254;6.702;2023-05-23T04:21:58;50.47;;;36.70;;
9950;SDS011;24074;49.254;6.702;2023-05-23T04:24:24;51.80;;;36.77;;
9950;SDS011;24074;49.254;6.702;2023-05-23T04:26:50;53.83;;;36.00;;
9950;SDS011;24074;49.254;6.702;2023-05-23T04:29:15;51.57;;;36.87;;
9950;SDS011;24074;49.254;6.702;2023-05-23T04:31:41;54.63;;;37.20;;
9950;SDS011;24074;49.254;6.702;2023-05-23T04:34:09;49.13;;;34.80;;
9950;SDS011;24074;49.254;6.702;2023-05-23T04:36:35;52.17;;;35.33;;
9950;SDS011;24074;49.254;6.702;2023-05-23T04:39:02;48.57;;;35.03;;
9950;SDS011;24074;49.254;6.702;2023-05-23T04:41:29;44.83;;;33.07;;
9950;SDS011;24074;49.254;6.702;2023-05-23T04:43:55;48.63;;;33.07;;
9950;SDS011;24074;49.254;6.702;2023-05-23T04:46:22;48.67;;;33.47;;
9950;SDS011;24074;49.254;6.702;2023-05-23T04:48:51;48.60;;;31.47;;
9950;SDS011;24074;49.254;6.702;2023-05-23T04:51:17;44.37;;;31.73;;
9950;SDS011;24074;49.254;6.702;2023-05-23T04:53:43;44.30;;;30.37;;
9950;SDS011;24074;49.254;6.702;2023-05-23T04:56:08;46.67;;;31.40;;
9950;SDS011;24074;49.254;6.702;2023-05-23T04:58:34;40.17;;;30.43;;
9950;SDS011;24074;49.254;6.702;2023-05-23T05:00:59;39.33;;;29.63;;
9950;SDS011;24074;49.254;6.702;2023-05-23T05:03:25;38.47;;;29.17;;
9950;SDS011;24074;49.254;6.702;2023-05-23T05:05:51;38.03;;;29.50;;
9950;SDS011;24074;49.254;6.702;2023-05-23T05:08:17;38.00;;;29.37;;
9950;SDS011;24074;49.254;6.702;2023-05-23T05:10:44;40.50;;;29.87;;
9950;SDS011;24074;49.254;6.702;2023-05-23T05:13:09;34.13;;;26.60;;
9950;SDS011;24074;49.254;6.702;2023-05-23T05:15:35;36.60;;;27.93;;
9950;SDS011;24074;49.254;6.702;2023-05-23T05:18:01;34.47;;;26.27;;
9950;SDS011;24074;49.254;6.702;2023-05-23T05:20:26;37.43;;;25.87;;
9950;SDS011;24074;49.254;6.702;2023-05-23T05:22:55;29.90;;;23.97;;
9950;SDS011;24074;49.254;6.702;2023-05-23T05:25:24;31.67;;;24.47;;
9950;SDS011;24074;49.254;6.702;2023-05-23T05:27:51;28.83;;;22.97;;
9950;SDS011;24074;49.254;6.702;2023-05-23T05:30:16;32.77;;;22.57;;
9950;SDS011;24074;49.254;6.702;2023-05-23T05:32:42;29.27;;;21.07;;
9950;SDS011;24074;49.254;6.702;2023-05-23T05:35:10;26.43;;;20.00;;
9950;SDS011;24074;49.254;6.702;2023-05-23T05:37:37;28.17;;;21.17;;
9950;SDS011;24074;49.254;6.702;2023-05-23T05:40:03;23.97;;;19.10;;
9950;SDS011;24074;49.254;6.702;2023-05-23T05:42:32;25.77;;;19.50;;
9950;SDS011;24074;49.254;6.702;2023-05-23T05:44:57;26.07;;;19.87;;
9950;SDS011;24074;49.254;6.702;2023-05-23T05:47:23;23.37;;;18.20;;
9950;SDS011;24074;49.254;6.702;2023-05-23T05:49:48;22.67;;;17.20;;
9950;SDS011;24074;49.254;6.702;2023-05-23T05:52:14;21.87;;;16.43;;
9950;SDS011;24074;49.254;6.702;2023-05-23T05:54:40;18.17;;;15.50;;
9950;SDS011;24074;49.254;6.702;2023-05-23T05:57:05;18.30;;;15.20;;
9950;SDS011;24074;49.254;6.702;2023-05-23T05:59:31;19.20;;;14.97;;
9950;SDS011;24074;49.254;6.702;2023-05-23T06:01:56;17.47;;;13.57;;
9950;SDS011;24074;49.254;6.702;2023-05-23T06:04:22;17.73;;;13.80;;
9950;SDS011;24074;49.254;6.702;2023-05-23T06:06:47;21.53;;;14.73;;
9950;SDS011;24074;49.254;6.702;2023-05-23T06:09:13;17.03;;;13.60;;
9950;SDS011;24074;49.254;6.702;2023-05-23T06:11:38;14.87;;;12.70;;
9950;SDS011;24074;49.254;6.702;2023-05-23T06:14:05;17.93;;;12.37;;
9950;SDS011;24074;49.254;6.702;2023-05-23T06:16:31;13.93;;;11.73;;
9950;SDS011;24074;49.254;6.702;2023-05-23T06:18:56;13.20;;;11.70;;
9950;SDS011;24074;49.254;6.702;2023-05-23T06:21:22;14.10;;;10.80;;
9950;SDS011;24074;49.254;6.702;2023-05-23T06:23:47;12.07;;;10.43;;
9950;SDS011;24074;49.254;6.702;2023-05-23T06:26:13;13.70;;;10.67;;
9950;SDS011;24074;49.254;6.702;2023-05-23T06:28:39;14.07;;;11.40;;
9950;SDS011;24074;49.254;6.702;2023-05-23T06:31:04;11.93;;;10.40;;
9950;SDS011;24074;49.254;6.702;2023-05-23T06:33:31;12.73;;;10.00;;
9950;SDS011;24074;49.254;6.702;2023-05-23T06:35:56;12.17;;;10.13;;
9950;SDS011;24074;49.254;6.702;2023-05-23T06:38:22;12.80;;;10.33;;
9950;SDS011;24074;49.254;6.702;2023-05-23T06:40:48;14.80;;;10.43;;
9950;SDS011;24074;49.254;6.702;2023-05-23T06:43:13;11.70;;;10.10;;
9950;SDS011;24074;49.254;6.702;2023-05-23T06:45:39;10.77;;;9.67;;
9950;SDS011;24074;49.254;6.702;2023-05-23T06:48:04;12.47;;;10.50;;
9950;SDS011;24074;49.254;6.702;2023-05-23T06:50:30;11.67;;;10.10;;
9950;SDS011;24074;49.254;6.702;2023-05-23T06:52:56;13.80;;;9.63;;
9950;SDS011;24074;49.254;6.702;2023-05-23T06:55:22;11.70;;;9.83;;
9950;SDS011;24074;49.254;6.702;2023-05-23T06:57:47;12.13;;;9.80;;
9950;SDS011;24074;49.254;6.702;2023-05-23T07:00:16;11.93;;;9.73;;
9950;SDS011;24074;49.254;6.702;2023-05-23T07:02:42;11.00;;;9.40;;
9950;SDS011;24074;49.254;6.702;2023-05-23T07:05:09;11.03;;;9.73;;
9950;SDS011;24074;49.254;6.702;2023-05-23T07:07:35;13.17;;;9.50;;
9950;SDS011;24074;49.254;6.702;2023-05-23T07:10:00;11.13;;;9.93;;
9950;SDS011;24074;49.254;6.702;2023-05-23T07:15:40;12.70;;;8.93;;
9950;SDS011;24074;49.254;6.702;2023-05-23T07:18:06;10.33;;;8.93;;
9950;SDS011;24074;49.254;6.702;2023-05-23T07:20:32;10.47;;;8.20;;
9950;SDS011;24074;49.254;6.702;2023-05-23T07:22:58;10.27;;;8.07;;
9950;SDS011;24074;49.254;6.702;2023-05-23T07:25:24;8.73;;;7.83;;
9950;SDS011;24074;49.254;6.702;2023-05-23T07:27:50;9.57;;;7.83;;
9950;SDS011;24074;49.254;6.702;2023-05-23T07:30:18;10.80;;;8.40;;
9950;SDS011;24074;49.254;6.702;2023-05-23T07:32:45;9.07;;;7.07;;
9950;SDS011;24074;49.254;6.702;2023-05-23T07:35:12;8.10;;;7.20;;
9950;SDS011;24074;49.254;6.702;2023-05-23T07:37:37;9.77;;;6.93;;
9950;SDS011;24074;49.254;6.702;2023-05-23T07:40:03;9.43;;;7.93;;
9950;SDS011;24074;49.254;6.702;2023-05-23T07:42:29;8.00;;;7.20;;
9950;SDS011;24074;49.254;6.702;2023-05-23T07:44:55;11.37;;;8.90;;
9950;SDS011;24074;49.254;6.702;2023-05-23T07:47:20;9.87;;;7.87;;
9950;SDS011;24074;49.254;6.702;2023-05-23T07:49:48;7.93;;;6.90;;
9950;SDS011;24074;49.254;6.702;2023-05-23T07:52:15;8.20;;;6.13;;
9950;SDS011;24074;49.254;6.702;2023-05-23T07:54:41;10.77;;;6.43;;
9950;SDS011;24074;49.254;6.702;2023-05-23T07:57:07;6.30;;;5.70;;
9950;SDS011;24074;49.254;6.702;2023-05-23T07:59:33;7.40;;;5.70;;
9950;SDS011;24074;49.254;6.702;2023-05-23T08:01:59;5.90;;;5.13;;
9950;SDS011;24074;49.254;6.702;2023-05-23T08:04:24;7.90;;;5.87;;
9950;SDS011;24074;49.254;6.702;2023-05-23T08:06:50;8.23;;;5.33;;
9950;SDS011;24074;49.254;6.702;2023-05-23T08:09:17;6.17;;;5.57;;
9950;SDS011;24074;49.254;6.702;2023-05-23T08:11:43;6.27;;;5.07;;
9950;SDS011;24074;49.254;6.702;2023-05-23T08:14:08;5.57;;;4.70;;
9950;SDS011;24074;49.254;6.702;2023-05-23T08:16:34;6.60;;;4.40;;
9950;SDS011;24074;49.254;6.702;2023-05-23T08:19:00;4.90;;;4.00;;
9950;SDS011;24074;49.254;6.702;2023-05-23T08:21:26;6.17;;;4.27;;
9950;SDS011;24074;49.254;6.702;2023-05-23T08:23:51;4.17;;;3.60;;
9950;SDS011;24074;49.254;6.702;2023-05-23T08:26:17;4.20;;;3.63;;
9950;SDS011;24074;49.254;6.702;2023-05-23T08:28:42;4.80;;;3.53;;
9950;SDS011;24074;49.254;6.702;2023-05-23T08:31:08;6.77;;;3.93;;
9950;SDS011;24074;49.254;6.702;2023-05-23T08:33:33;5.83;;;3.57;;
9950;SDS011;24074;49.254;6.702;2023-05-23T08:35:59;5.03;;;4.10;;
9950;SDS011;24074;49.254;6.702;2023-05-23T08:38:25;4.30;;;3.60;;
9950;SDS011;24074;49.254;6.702;2023-05-23T08:40:51;4.83;;;4.10;;
9950;SDS011;24074;49.254;6.702;2023-05-23T08:43:18;6.03;;;3.70;;
9950;SDS011;24074;49.254;6.702;2023-05-23T08:45:44;4.53;;;4.10;;
9950;SDS011;24074;49.254;6.702;2023-05-23T08:48:12;5.03;;;4.37;;
9950;SDS011;24074;49.254;6.702;2023-05-23T08:50:39;5.80;;;4.70;;
9950;SDS011;24074;49.254;6.702;2023-05-23T08:53:07;5.40;;;4.23;;
9950;SDS011;24074;49.254;6.702;2023-05-23T08:55:34;5.03;;;4.50;;
9950;SDS011;24074;49.254;6.702;2023-05-23T08:58:02;4.30;;;3.90;;
9950;SDS011;24074;49.254;6.702;2023-05-23T09:00:28;7.00;;;4.10;;
9950;SDS011;24074;49.254;6.702;2023-05-23T09:02:54;5.70;;;4.13;;
9950;SDS011;24074;49.254;6.702;2023-05-23T09:05:20;3.40;;;2.93;;
9950;SDS011;24074;49.254;6.702;2023-05-23T09:07:47;4.33;;;3.50;;
9950;SDS011;24074;49.254;6.702;2023-05-23T09:10:13;3.70;;;3.40;;
9950;SDS011;24074;49.254;6.702;2023-05-23T09:12:41;4.70;;;3.57;;
9950;SDS011;24074;49.254;6.702;2023-05-23T09:15:07;4.77;;;3.47;;
9950;SDS011;24074;49.254;6.702;2023-05-23T09:17:34;3.47;;;3.17;;
9950;SDS011;24074;49.254;6.702;2023-05-23T09:20:02;3.93;;;3.43;;
9950;SDS011;24074;49.254;6.702;2023-05-23T09:22:29;4.20;;;3.70;;
9950;SDS011;24074;49.254;6.702;2023-05-23T09:24:55;3.83;;;3.47;;
9950;SDS011;24074;49.254;6.702;2023-05-23T09:27:21;4.50;;;3.47;;
9950;SDS011;24074;49.254;6.702;2023-05-23T09:29:48;4.13;;;3.07;;
9950;SDS011;24074;49.254;6.702;2023-05-23T09:32:15;4.47;;;3.70;;
9950;SDS011;24074;49.254;6.702;2023-05-23T09:34:53;4.37;;;3.60;;
9950;SDS011;24074;49.254;6.702;2023-05-23T09:37:21;3.33;;;3.03;;
9950;SDS011;24074;49.254;6.702;2023-05-23T09:39:48;3.20;;;2.90;;
9950;SDS011;24074;49.254;6.702;2023-05-23T09:42:19;2.90;;;2.70;;
9950;SDS011;24074;49.254;6.702;2023-05-23T09:44:45;5.77;;;3.10;;
9950;SDS011;24074;49.254;6.702;2023-05-23T09:47:11;2.70;;;2.50;;
9950;SDS011;24074;49.254;6.702;2023-05-23T09:49:40;2.40;;;2.20;;
9950;SDS011;24074;49.254;6.702;2023-05-23T09:52:08;2.50;;;2.30;;
9950;SDS011;24074;49.254;6.702;2023-05-23T09:54:33;2.47;;;2.27;;
9950;SDS011;24074;49.254;6.702;2023-05-23T09:56:59;2.37;;;2.17;;
9950;SDS011;24074;49.254;6.702;2023-05-23T09:59:27;2.30;;;2.10;;
9950;SDS011;24074;49.254;6.702;2023-05-23T10:01:56;2.40;;;1.90;;
9950;SDS011;24074;49.254;6.702;2023-05-23T10:04:24;2.40;;;2.20;;
9950;SDS011;24074;49.254;6.702;2023-05-23T10:06:52;2.57;;;2.27;;
9950;SDS011;24074;49.254;6.702;2023-05-23T10:09:22;3.73;;;2.43;;
9950;SDS011;24074;49.254;6.702;2023-05-23T10:14:38;2.87;;;2.57;;
9950;SDS011;24074;49.254;6.702;2023-05-23T10:17:10;2.83;;;2.20;;
9950;SDS011;24074;49.254;6.702;2023-05-23T10:19:43;3.80;;;2.30;;
9950;SDS011;24074;49.254;6.702;2023-05-23T10:22:17;3.17;;;2.30;;
9950;SDS011;24074;49.254;6.702;2023-05-23T10:24:44;2.33;;;2.00;;
9950;SDS011;24074;49.254;6.702;2023-05-23T10:27:11;2.27;;;2.07;;
9950;SDS011;24074;49.254;6.702;2023-05-23T10:29:36;2.33;;;2.00;;
9950;SDS011;24074;49.254;6.702;2023-05-23T10:32:02;2.77;;;2.20;;
9950;SDS011;24074;49.254;6.702;2023-05-23T10:34:40;5.20;;;2.70;;
9950;SDS011;24074;49.254;6.702;2023-05-23T10:37:09;2.40;;;2.20;;
9950;SDS011;24074;49.254;6.702;2023-05-23T10:44:50;3.40;;;2.20;;
9950;SDS011;24074;49.254;6.702;2023-05-23T10:47:25;2.10;;;1.90;;
9950;SDS011;24074;49.254;6.702;2023-05-23T10:49:54;2.60;;;2.33;;
9950;SDS011;24074;49.254;6.702;2023-05-23T10:52:22;3.47;;;1.93;;
9950;SDS011;24074;49.254;6.702;2023-05-23T10:54:51;3.10;;;2.37;;
9950;SDS011;24074;49.254;6.702;2023-05-23T10:57:19;3.37;;;2.27;;
9950;SDS011;24074;49.254;6.702;2023-05-23T11:02:53;3.40;;;2.63;;
9950;SDS011;24074;49.254;6.702;2023-05-23T11:05:23;2.70;;;2.50;;
9950;SDS011;24074;49.254;6.702;2023-05-23T11:08:11;2.97;;;2.67;;
9950;SDS011;24074;49.254;6.702;2023-05-23T11:10:55;3.07;;;2.73;;
9950;SDS011;24074;49.254;6.702;2023-05-23T11:13:21;4.40;;;3.20;;
9950;SDS011;24074;49.254;6.702;2023-05-23T11:15:47;3.20;;;2.90;;
9950;SDS011;24074;49.254;6.702;2023-05-23T11:18:23;3.03;;;2.67;;
9950;SDS011;24074;49.254;6.702;2023-05-23T11:20:52;3.13;;;2.70;;
9950;SDS011;24074;49.254;6.702;2023-05-23T11:23:18;3.30;;;2.83;;
9950;SDS011;24074;49.254;6.702;2023-05-23T11:25:49;3.33;;;3.10;;
9950;SDS011;24074;49.254;6.702;2023-05-23T11:28:19;2.90;;;2.60;;
9950;SDS011;24074;49.254;6.702;2023-05-23T11:30:48;3.60;;;3.10;;
9950;SDS011;24074;49.254;6.702;2023-05-23T11:33:14;2.80;;;2.53;;
9950;SDS011;24074;49.254;6.702;2023-05-23T11:35:42;2.73;;;2.53;;
9950;SDS011;24074;49.254;6.702;2023-05-23T11:38:15;3.50;;;3.20;;
9950;SDS011;24074;49.254;6.702;2023-05-23T11:40:41;3.40;;;3.10;;
9950;SDS011;24074;49.254;6.702;2023-05-23T11:43:09;3.83;;;3.43;;
9950;SDS011;24074;49.254;6.702;2023-05-23T11:45:38;3.63;;;3.30;;
9950;SDS011;24074;49.254;6.702;2023-05-23T11:48:04;3.50;;;3.20;;
9950;SDS011;24074;49.254;6.702;2023-05-23T11:50:31;3.80;;;3.50;;
9950;SDS011;24074;49.254;6.702;2023-05-23T11:52:56;3.73;;;3.40;;
9950;SDS011;24074;49.254;6.702;2023-05-23T11:55:22;5.37;;;3.20;;
9950;SDS011;24074;49.254;6.702;2023-05-23T11:57:48;3.70;;;3.40;;
9950;SDS011;24074;49.254;6.702;2023-05-23T12:00:15;6.97;;;4.10;;
9950;SDS011;24074;49.254;6.702;2023-05-23T12:02:42;5.03;;;3.87;;
9950;SDS011;24074;49.254;6.702;2023-05-23T12:05:11;7.07;;;4.80;;
9950;SDS011;24074;49.254;6.702;2023-05-23T12:07:41;6.20;;;5.40;;
9950;SDS011;24074;49.254;6.702;2023-05-23T12:10:09;5.60;;;3.73;;
9950;SDS011;24074;49.254;6.702;2023-05-23T12:12:34;4.40;;;4.00;;
9950;SDS011;24074;49.254;6.702;2023-05-23T12:15:01;3.70;;;3.33;;
9950;SDS011;24074;49.254;6.702;2023-05-23T12:17:26;4.23;;;3.73;;
9950;SDS011;24074;49.254;6.702;2023-05-23T12:19:52;4.63;;;3.80;;
9950;SDS011;24074;49.254;6.702;2023-05-23T12:22:21;5.30;;;3.50;;
9950;SDS011;24074;49.254;6.702;2023-05-23T12:24:54;4.30;;;3.90;;
9950;SDS011;24074;49.254;6.702;2023-05-23T12:27:25;4.37;;;3.97;;
9950;SDS011;24074;49.254;6.702;2023-05-23T12:30:09;4.30;;;3.90;;
9950;SDS011;24074;49.254;6.702;2023-05-23T12:32:38;5.70;;;3.93;;
9950;SDS011;24074;49.254;6.702;2023-05-23T12:35:06;4.43;;;4.03;;
9950;SDS011;24074;49.254;6.702;2023-05-23T12:37:40;5.13;;;4.17;;
9950;SDS011;24074;49.254;6.702;2023-05-23T12:40:13;4.37;;;3.97;;
9950;SDS011;24074;49.254;6.702;2023-05-23T12:42:58;4.50;;;4.10;;
9950;SDS011;24074;49.254;6.702;2023-05-23T12:45:28;4.60;;;4.20;;
9950;SDS011;24074;49.254;6.702;2023-05-23T12:47:59;4.30;;;3.80;;
9950;SDS011;24074;49.254;6.702;2023-05-23T12:50:25;5.33;;;4.83;;
9950;SDS011;24074;49.254;6.702;2023-05-23T12:52:51;4.60;;;4.20;;
9950;SDS011;24074;49.254;6.702;2023-05-23T12:55:16;4.97;;;4.47;;
9950;SDS011;24074;49.254;6.702;2023-05-23T12:57:42;5.07;;;4.40;;
9950;SDS011;24074;49.254;6.702;2023-05-23T13:00:08;4.33;;;3.93;;
9950;SDS011;24074;49.254;6.702;2023-05-23T13:02:35;5.00;;;4.50;;
9950;SDS011;24074;49.254;6.702;2023-05-23T13:05:01;5.20;;;4.57;;
9950;SDS011;24074;49.254;6.702;2023-05-23T13:07:26;4.80;;;4.40;;
9950;SDS011;24074;49.254;6.702;2023-05-23T13:09:53;4.63;;;4.20;;
9950;SDS011;24074;49.254;6.702;2023-05-23T13:12:18;4.47;;;4.07;;
9950;SDS011;24074;49.254;6.702;2023-05-23T13:14:44;5.30;;;4.47;;
9950;SDS011;24074;49.254;6.702;2023-05-23T13:17:10;4.63;;;4.17;;
9950;SDS011;24074;49.254;6.702;2023-05-23T13:19:36;4.70;;;4.20;;
9950;SDS011;24074;49.254;6.702;2023-05-23T13:22:02;4.30;;;3.90;;
9950;SDS011;24074;49.254;6.702;2023-05-23T13:24:28;4.90;;;4.40;;
9950;SDS011;24074;49.254;6.702;2023-05-23T13:26:54;8.27;;;3.97;;
9950;SDS011;24074;49.254;6.702;2023-05-23T13:29:20;5.77;;;4.50;;
9950;SDS011;24074;49.254;6.702;2023-05-23T13:31:46;5.37;;;4.20;;
9950;SDS011;24074;49.254;6.702;2023-05-23T13:34:11;6.80;;;4.50;;
9950;SDS011;24074;49.254;6.702;2023-05-23T13:36:37;4.90;;;4.50;;
9950;SDS011;24074;49.254;6.702;2023-05-23T13:39:03;4.70;;;4.30;;
9950;SDS011;24074;49.254;6.702;2023-05-23T13:41:28;5.63;;;4.60;;
9950;SDS011;24074;49.254;6.702;2023-05-23T13:43:54;5.17;;;4.67;;
9950;SDS011;24074;49.254;6.702;2023-05-23T13:46:20;5.10;;;4.50;;
9950;SDS011;24074;49.254;6.702;2023-05-23T13:48:46;6.23;;;4.43;;
9950;SDS011;24074;49.254;6.702;2023-05-23T13:51:11;4.93;;;4.37;;
9950;SDS011;24074;49.254;6.702;2023-05-23T13:53:37;4.60;;;4.20;;
9950;SDS011;24074;49.254;6.702;2023-05-23T13:56:02;5.33;;;4.23;;
9950;SDS011;24074;49.254;6.702;2023-05-23T13:58:28;4.50;;;4.10;;
9950;SDS011;24074;49.254;6.702;2023-05-23T14:00:53;4.73;;;4.33;;
9950;SDS011;24074;49.254;6.702;2023-05-23T14:03:22;4.30;;;3.93;;
9950;SDS011;24074;49.254;6.702;2023-05-23T14:05:48;4.43;;;4.03;;
9950;SDS011;24074;49.254;6.702;2023-05-23T14:08:14;5.20;;;4.10;;
9950;SDS011;24074;49.254;6.702;2023-05-23T14:10:39;4.30;;;3.90;;
9950;SDS011;24074;49.254;6.702;2023-05-23T14:13:05;4.37;;;3.80;;
9950;SDS011;24074;49.254;6.702;2023-05-23T14:15:31;5.73;;;3.83;;
9950;SDS011;24074;49.254;6.702;2023-05-23T14:17:57;4.20;;;3.80;;
9950;SDS011;24074;49.254;6.702;2023-05-23T14:20:23;4.17;;;3.60;;
9950;SDS011;24074;49.254;6.702;2023-05-23T14:22:49;3.50;;;3.20;;
9950;SDS011;24074;49.254;6.702;2023-05-23T14:25:15;3.90;;;3.53;;
9950;SDS011;24074;49.254;6.702;2023-05-23T14:27:41;3.67;;;3.37;;
9950;SDS011;24074;49.254;6.702;2023-05-23T14:30:07;4.03;;;3.70;;
9950;SDS011;24074;49.254;6.702;2023-05-23T14:32:43;4.43;;;3.43;;
9950;SDS011;24074;49.254;6.702;2023-05-23T14:35:09;7.73;;;3.40;;
9950;SDS011;24074;49.254;6.702;2023-05-23T14:37:35;3.77;;;3.33;;
9950;SDS011;24074;49.254;6.702;2023-05-23T14:40:01;4.43;;;3.27;;
9950;SDS011;24074;49.254;6.702;2023-05-23T14:42:27;3.73;;;3.30;;
9950;SDS011;24074;49.254;6.702;2023-05-23T14:44:56;3.90;;;3.40;;
9950;SDS011;24074;49.254;6.702;2023-05-23T14:47:22;3.40;;;3.10;;
9950;SDS011;24074;49.254;6.702;2023-05-23T14:49:47;3.83;;;3.40;;
9950;SDS011;24074;49.254;6.702;2023-05-23T14:52:13;3.93;;;3.53;;
9950;SDS011;24074;49.254;6.702;2023-05-23T14:54:38;4.10;;;3.57;;
9950;SDS011;24074;49.254;6.702;2023-05-23T14:57:10;5.10;;;3.13;;
9950;SDS011;24074;49.254;6.702;2023-05-23T14:59:36;3.27;;;3.07;;
9950;SDS011;24074;49.254;6.702;2023-05-23T15:02:02;3.80;;;3.47;;
9950;SDS011;24074;49.254;6.702;2023-05-23T15:04:28;3.53;;;3.23;;